createdAt,value
2019-03-03T00:00:49.755Z,1005.97
2019-03-03T00:01:49.692Z,1005.98
2019-03-03T00:02:49.691Z,1005.96
2019-03-03T00:03:49.672Z,1005.98
2019-03-03T00:04:49.670Z,1005.96
2019-03-03T00:05:49.649Z,1006.01
2019-03-03T00:06:49.676Z,1005.97
2019-03-03T00:07:49.626Z,1005.98
2019-03-03T00:08:49.662Z,1005.97
2019-03-03T00:09:49.650Z,1005.99
2019-03-03T00:10:49.592Z,1005.98
2019-03-03T00:11:49.580Z,1005.96
2019-03-03T00:12:49.571Z,1005.91
2019-03-03T00:13:49.606Z,1005.99
2019-03-03T00:14:49.548Z,1005.91
2019-03-03T00:15:49.587Z,1005.92
2019-03-03T00:16:49.525Z,1005.92
2019-03-03T00:17:49.512Z,1005.89
2019-03-03T00:18:49.503Z,1005.89
2019-03-03T00:19:49.530Z,1005.86
2019-03-03T00:20:49.479Z,1005.84
2019-03-03T00:21:49.470Z,1005.85
2019-03-03T00:22:49.523Z,1005.82
2019-03-03T00:23:49.451Z,1005.82
2019-03-03T00:24:49.435Z,1005.83
2019-03-03T00:25:49.478Z,1005.79
2019-03-03T00:26:49.412Z,1005.78
2019-03-03T00:27:49.450Z,1005.78
2019-03-03T00:28:49.390Z,1005.83
2019-03-03T00:29:49.376Z,1005.86
2019-03-03T00:30:49.406Z,1005.88
2019-03-03T00:31:49.359Z,1005.90
2019-03-03T00:32:49.356Z,1005.88
2019-03-03T00:33:49.330Z,1005.89
2019-03-03T00:34:49.320Z,1005.90
2019-03-03T00:35:49.360Z,1005.92
2019-03-03T00:36:49.314Z,1005.92
2019-03-03T00:37:49.287Z,1005.93
2019-03-03T00:38:49.280Z,1005.91
2019-03-03T00:39:49.301Z,1005.89
2019-03-03T00:40:49.251Z,1005.93
2019-03-03T00:41:49.254Z,1005.96
2019-03-03T00:42:49.267Z,1005.93
2019-03-03T00:43:49.217Z,1005.94
2019-03-03T00:44:49.209Z,1005.95
2019-03-03T00:45:49.237Z,1005.90
2019-03-03T00:46:49.186Z,1005.80
2019-03-03T00:47:49.182Z,1005.86
2019-03-03T00:48:49.207Z,1005.81
2019-03-03T00:49:49.149Z,1005.85
2019-03-03T00:50:49.140Z,1005.86
2019-03-03T00:51:49.128Z,1005.80
2019-03-03T00:52:49.116Z,1005.80
2019-03-03T00:53:49.173Z,1005.74
2019-03-03T00:54:49.095Z,1005.72
2019-03-03T00:55:49.082Z,1005.70
2019-03-03T00:56:49.071Z,1005.76
2019-03-03T00:57:49.058Z,1005.74
2019-03-03T00:58:49.049Z,1005.71
2019-03-03T00:59:49.079Z,1005.71
2019-03-03T01:00:50.990Z,1005.65
2019-03-03T01:01:49.016Z,1005.63
2019-03-03T01:02:49.007Z,1005.62
2019-03-03T01:03:48.992Z,1005.64
2019-03-03T01:04:49.019Z,1005.65
2019-03-03T01:05:48.974Z,1005.60
2019-03-03T01:06:49.001Z,1005.63
2019-03-03T01:07:48.947Z,1005.60
2019-03-03T01:08:48.937Z,1005.54
2019-03-03T01:09:48.969Z,1005.60
2019-03-03T01:10:48.913Z,1005.59
2019-03-03T01:11:48.901Z,1005.68
2019-03-03T01:12:48.942Z,1005.69
2019-03-03T01:13:48.878Z,1005.66
2019-03-03T01:14:48.871Z,1005.65
2019-03-03T01:15:48.899Z,1005.63
2019-03-03T01:16:48.847Z,1005.63
2019-03-03T01:17:48.834Z,1005.62
2019-03-03T01:18:48.831Z,1005.60
2019-03-03T01:19:48.852Z,1005.55
2019-03-03T01:20:48.803Z,1005.60
2019-03-03T01:21:48.791Z,1005.58
2019-03-03T01:22:48.824Z,1005.63
2019-03-03T01:23:48.770Z,1005.66
2019-03-03T01:24:48.755Z,1005.68
2019-03-03T01:25:48.748Z,1005.66
2019-03-03T01:26:48.731Z,1005.66
2019-03-03T01:27:48.776Z,1005.64
2019-03-03T01:28:48.767Z,1005.63
2019-03-03T01:29:48.707Z,1005.66
2019-03-03T01:30:48.699Z,1005.69
2019-03-03T01:31:48.674Z,1005.67
2019-03-03T01:32:48.664Z,1005.66
2019-03-03T01:33:48.653Z,1005.64
2019-03-03T01:34:48.682Z,1005.57
2019-03-03T01:35:48.633Z,1005.58
2019-03-03T01:36:48.639Z,1005.47
2019-03-03T01:37:48.611Z,1005.45
2019-03-03T01:38:48.600Z,1005.45
2019-03-03T01:39:48.643Z,1005.46
2019-03-03T01:40:48.576Z,1005.46
2019-03-03T01:41:48.563Z,1005.44
2019-03-03T01:42:48.555Z,1005.42
2019-03-03T01:43:48.542Z,1005.40
2019-03-03T01:44:48.531Z,1005.39
2019-03-03T01:45:48.564Z,1005.42
2019-03-03T01:46:48.552Z,1005.37
2019-03-03T01:47:48.496Z,1005.40
2019-03-03T01:48:48.487Z,1005.40
2019-03-03T01:49:48.475Z,1005.40
2019-03-03T01:50:48.509Z,1005.49
2019-03-03T01:51:48.457Z,1005.45
2019-03-03T01:52:48.444Z,1005.49
2019-03-03T01:53:48.484Z,1005.51
2019-03-03T01:54:48.417Z,1005.49
2019-03-03T01:55:48.406Z,1005.50
2019-03-03T01:56:48.404Z,1005.51
2019-03-03T01:57:48.424Z,1005.49
2019-03-03T01:58:48.377Z,1005.49
2019-03-03T01:59:48.377Z,1005.45
2019-03-03T02:00:48.350Z,1005.43
2019-03-03T02:01:48.343Z,1005.39
2019-03-03T02:02:48.370Z,1005.35
2019-03-03T02:03:48.356Z,1005.30
2019-03-03T02:04:48.305Z,1005.28
2019-03-03T02:05:48.292Z,1005.26
2019-03-03T02:06:48.282Z,1005.23
2019-03-03T02:07:48.286Z,1005.27
2019-03-03T02:08:48.311Z,1005.28
2019-03-03T02:09:48.252Z,1005.23
2019-03-03T02:10:48.237Z,1005.29
2019-03-03T02:11:48.226Z,1005.22
2019-03-03T02:12:48.219Z,1005.19
2019-03-03T02:13:48.217Z,1005.19
2019-03-03T02:14:48.236Z,1005.19
2019-03-03T02:15:48.190Z,1005.17
2019-03-03T02:16:48.173Z,1005.12
2019-03-03T02:17:48.163Z,1005.11
2019-03-03T02:18:48.154Z,1005.13
2019-03-03T02:19:48.137Z,1005.08
2019-03-03T02:20:48.175Z,1005.07
2019-03-03T02:21:48.169Z,1005.09
2019-03-03T02:22:48.105Z,1005.04
2019-03-03T02:23:48.093Z,1004.98
2019-03-03T02:24:48.116Z,1005.05
2019-03-03T02:25:48.070Z,1004.99
2019-03-03T02:26:48.054Z,1004.99
2019-03-03T02:27:48.048Z,1005.00
2019-03-03T02:28:48.035Z,1004.97
2019-03-03T02:29:48.078Z,1004.98
2019-03-03T02:30:48.031Z,1004.92
2019-03-03T02:31:48.003Z,1004.88
2019-03-03T02:32:47.999Z,1004.92
2019-03-03T02:33:47.976Z,1004.87
2019-03-03T02:34:47.972Z,1004.85
2019-03-03T02:35:47.996Z,1004.82
2019-03-03T02:36:47.945Z,1004.90
2019-03-03T02:37:47.937Z,1004.86
2019-03-03T02:38:47.961Z,1004.84
2019-03-03T02:39:47.948Z,1004.80
2019-03-03T02:40:47.901Z,1004.79
2019-03-03T02:41:47.935Z,1004.80
2019-03-03T02:42:47.919Z,1004.76
2019-03-03T02:43:47.866Z,1004.78
2019-03-03T02:44:47.854Z,1004.78
2019-03-03T02:45:47.841Z,1004.76
2019-03-03T02:46:47.831Z,1004.75
2019-03-03T02:47:47.823Z,1004.76
2019-03-03T02:48:47.856Z,1004.70
2019-03-03T02:49:47.834Z,1004.76
2019-03-03T02:50:47.787Z,1004.76
2019-03-03T02:51:47.774Z,1004.72
2019-03-03T02:52:47.762Z,1004.65
2019-03-03T02:53:47.749Z,1004.57
2019-03-03T02:54:47.784Z,1004.59
2019-03-03T02:55:47.734Z,1004.48
2019-03-03T02:56:47.762Z,1004.46
2019-03-03T02:57:47.716Z,1004.40
2019-03-03T02:58:47.790Z,1004.41
2019-03-03T02:59:47.684Z,1004.40
2019-03-03T03:00:47.687Z,1004.37
2019-03-03T03:01:47.713Z,1004.32
2019-03-03T03:02:47.654Z,1004.31
2019-03-03T03:03:47.709Z,1004.33
2019-03-03T03:04:47.628Z,1004.31
2019-03-03T03:05:47.617Z,1004.29
2019-03-03T03:06:47.653Z,1004.28
2019-03-03T03:07:47.593Z,1004.22
2019-03-03T03:08:47.599Z,1004.25
2019-03-03T03:09:47.573Z,1004.30
2019-03-03T03:10:47.614Z,1004.19
2019-03-03T03:11:47.558Z,1004.22
2019-03-03T03:12:47.537Z,1004.23
2019-03-03T03:13:47.525Z,1004.31
2019-03-03T03:14:47.575Z,1004.30
2019-03-03T03:15:47.520Z,1004.32
2019-03-03T03:16:47.491Z,1004.36
2019-03-03T03:17:47.483Z,1004.41
2019-03-03T03:18:47.467Z,1004.39
2019-03-03T03:19:47.518Z,1004.37
2019-03-03T03:20:47.443Z,1004.37
2019-03-03T03:21:47.440Z,1004.31
2019-03-03T03:22:47.422Z,1004.27
2019-03-03T03:23:47.413Z,1004.29
2019-03-03T03:24:47.447Z,1004.27
2019-03-03T03:25:47.387Z,1004.25
2019-03-03T03:26:47.421Z,1004.24
2019-03-03T03:27:47.366Z,1004.20
2019-03-03T03:28:47.357Z,1004.17
2019-03-03T03:29:47.346Z,1004.18
2019-03-03T03:30:47.351Z,1004.17
2019-03-03T03:31:47.329Z,1004.20
2019-03-03T03:32:47.361Z,1004.24
2019-03-03T03:33:47.300Z,1004.17
2019-03-03T03:34:47.288Z,1004.16
2019-03-03T03:35:47.327Z,1004.06
2019-03-03T03:36:47.269Z,1004.02
2019-03-03T03:37:47.258Z,1003.97
2019-03-03T03:38:47.304Z,1003.95
2019-03-03T03:39:47.235Z,1003.90
2019-03-03T03:40:47.219Z,1003.85
2019-03-03T03:41:47.207Z,1003.82
2019-03-03T03:42:47.199Z,1003.77
2019-03-03T03:43:47.185Z,1003.78
2019-03-03T03:44:47.215Z,1003.74
2019-03-03T03:45:47.167Z,1003.75
2019-03-03T03:46:47.149Z,1003.71
2019-03-03T03:47:47.180Z,1003.74
2019-03-03T03:48:47.137Z,1003.71
2019-03-03T03:49:47.121Z,1003.69
2019-03-03T03:50:47.108Z,1003.71
2019-03-03T03:51:47.101Z,1003.68
2019-03-03T03:52:47.159Z,1003.70
2019-03-03T03:53:47.082Z,1003.73
2019-03-03T03:54:47.058Z,1003.76
2019-03-03T03:55:47.051Z,1003.74
2019-03-03T03:56:47.034Z,1003.76
2019-03-03T03:57:47.024Z,1003.82
2019-03-03T03:58:47.070Z,1003.81
2019-03-03T03:59:47.003Z,1003.79
2019-03-03T04:00:47.000Z,1003.77
2019-03-03T04:01:46.978Z,1003.83
2019-03-03T04:02:46.967Z,1003.79
2019-03-03T04:03:47.004Z,1003.73
2019-03-03T04:04:46.964Z,1003.69
2019-03-03T04:05:46.938Z,1003.67
2019-03-03T04:06:46.923Z,1003.67
2019-03-03T04:07:46.912Z,1003.70
2019-03-03T04:08:46.943Z,1003.64
2019-03-03T04:09:46.937Z,1003.67
2019-03-03T04:10:46.876Z,1003.67
2019-03-03T04:11:47.531Z,1003.61
2019-03-03T04:12:46.854Z,1003.62
2019-03-03T04:13:46.841Z,1003.63
2019-03-03T04:14:46.881Z,1003.52
2019-03-03T04:15:46.823Z,1003.47
2019-03-03T04:16:46.812Z,1003.42
2019-03-03T04:17:46.828Z,1003.41
2019-03-03T04:18:46.783Z,1003.36
2019-03-03T04:19:46.816Z,1003.38
2019-03-03T04:20:46.815Z,1003.40
2019-03-03T04:21:46.750Z,1003.37
2019-03-03T04:22:46.739Z,1003.36
2019-03-03T04:23:46.734Z,1003.30
2019-03-03T04:24:46.717Z,1003.26
2019-03-03T04:25:46.748Z,1003.32
2019-03-03T04:26:46.692Z,1003.33
2019-03-03T04:27:46.683Z,1003.30
2019-03-03T04:28:46.670Z,1003.33
2019-03-03T04:29:46.663Z,1003.29
2019-03-03T04:30:46.695Z,1003.25
2019-03-03T04:31:46.638Z,1003.21
2019-03-03T04:32:46.629Z,1003.25
2019-03-03T04:33:46.612Z,1003.23
2019-03-03T04:34:46.619Z,1003.22
2019-03-03T04:35:46.592Z,1003.09
2019-03-03T04:36:46.623Z,1003.18
2019-03-03T04:37:46.581Z,1003.18
2019-03-03T04:38:46.561Z,1003.07
2019-03-03T04:39:46.546Z,1003.12
2019-03-03T04:40:46.532Z,1003.15
2019-03-03T04:41:46.580Z,1003.11
2019-03-03T04:42:46.516Z,1003.10
2019-03-03T04:43:46.503Z,1003.12
2019-03-03T04:44:46.492Z,1003.13
2019-03-03T04:45:46.479Z,1003.17
2019-03-03T04:46:46.465Z,1003.13
2019-03-03T04:47:46.508Z,1003.13
2019-03-03T04:48:46.448Z,1003.14
2019-03-03T04:49:46.436Z,1003.13
2019-03-03T04:50:46.420Z,1003.18
2019-03-03T04:51:46.411Z,1003.17
2019-03-03T04:52:46.410Z,1003.16
2019-03-03T04:53:46.439Z,1003.18
2019-03-03T04:54:46.382Z,1003.13
2019-03-03T04:55:46.369Z,1003.13
2019-03-03T04:56:46.359Z,1003.19
2019-03-03T04:57:46.396Z,1003.17
2019-03-03T04:58:46.332Z,1003.09
2019-03-03T04:59:46.349Z,1003.13
2019-03-03T05:00:46.314Z,1003.13
2019-03-03T05:01:46.298Z,1003.13
2019-03-03T05:02:46.284Z,1003.11
2019-03-03T05:03:46.325Z,1003.13
2019-03-03T05:04:46.264Z,1003.12
2019-03-03T05:05:46.250Z,1003.08
2019-03-03T05:06:46.308Z,1003.07
2019-03-03T05:07:46.232Z,1003.06
2019-03-03T05:08:46.215Z,1003.03
2019-03-03T05:09:46.225Z,1002.97
2019-03-03T05:10:46.192Z,1002.98
2019-03-03T05:11:46.186Z,1002.96
2019-03-03T05:12:46.226Z,1002.98
2019-03-03T05:13:46.165Z,1003.02
2019-03-03T05:14:46.148Z,1002.96
2019-03-03T05:15:46.141Z,1002.97
2019-03-03T05:16:46.126Z,1002.95
2019-03-03T05:17:46.117Z,1002.91
2019-03-03T05:18:46.166Z,1002.90
2019-03-03T05:19:46.091Z,1002.86
2019-03-03T05:20:46.083Z,1002.87
2019-03-03T05:21:46.069Z,1002.84
2019-03-03T05:22:46.054Z,1002.89
2019-03-03T05:23:46.110Z,1002.83
2019-03-03T05:24:46.033Z,1002.77
2019-03-03T05:25:46.025Z,1002.75
2019-03-03T05:26:46.054Z,1002.80
2019-03-03T05:27:46.000Z,1002.76
2019-03-03T05:28:45.991Z,1002.75
2019-03-03T05:29:45.978Z,1002.75
2019-03-03T05:30:45.966Z,1002.77
2019-03-03T05:31:45.967Z,1002.76
2019-03-03T05:32:45.990Z,1002.73
2019-03-03T05:33:45.934Z,1002.71
2019-03-03T05:34:45.922Z,1002.73
2019-03-03T05:35:45.912Z,1002.70
2019-03-03T05:36:45.898Z,1002.67
2019-03-03T05:37:45.885Z,1002.69
2019-03-03T05:38:45.924Z,1002.66
2019-03-03T05:39:45.864Z,1002.58
2019-03-03T05:40:45.902Z,1002.62
2019-03-03T05:41:45.891Z,1002.59
2019-03-03T05:42:45.838Z,1002.56
2019-03-03T05:43:45.823Z,1002.60
2019-03-03T05:44:45.811Z,1002.64
2019-03-03T05:45:45.805Z,1002.63
2019-03-03T05:46:45.783Z,1002.57
2019-03-03T05:47:45.820Z,1002.57
2019-03-03T05:48:45.761Z,1002.55
2019-03-03T05:49:45.752Z,1002.59
2019-03-03T05:50:45.738Z,1002.53
2019-03-03T05:51:45.783Z,1002.54
2019-03-03T05:52:45.754Z,1002.57
2019-03-03T05:53:45.716Z,1002.53
2019-03-03T05:54:45.693Z,1002.60
2019-03-03T05:55:45.682Z,1002.59
2019-03-03T05:56:45.670Z,1002.63
2019-03-03T05:57:45.707Z,1002.64
2019-03-03T05:58:45.645Z,1002.65
2019-03-03T05:59:45.679Z,1002.63
2019-03-03T06:00:45.626Z,1002.67
2019-03-03T06:01:45.626Z,1002.66
2019-03-03T06:02:45.641Z,1002.61
2019-03-03T06:03:45.596Z,1002.70
2019-03-03T06:04:45.582Z,1002.67
2019-03-03T06:05:47.395Z,1002.64
2019-03-03T06:06:45.565Z,1002.68
2019-03-03T06:07:45.607Z,1002.70
2019-03-03T06:08:45.532Z,1002.69
2019-03-03T06:09:45.524Z,1002.76
2019-03-03T06:10:45.512Z,1002.69
2019-03-03T06:11:45.509Z,1002.71
2019-03-03T06:12:45.558Z,1002.72
2019-03-03T06:13:45.480Z,1002.72
2019-03-03T06:14:45.464Z,1002.70
2019-03-03T06:15:45.455Z,1002.71
2019-03-03T06:16:45.443Z,1002.71
2019-03-03T06:17:45.436Z,1002.68
2019-03-03T06:18:45.486Z,1002.63
2019-03-03T06:19:45.463Z,1002.65
2019-03-03T06:20:45.412Z,1002.65
2019-03-03T06:21:45.385Z,1002.63
2019-03-03T06:22:45.374Z,1002.68
2019-03-03T06:23:45.369Z,1002.67
2019-03-03T06:24:45.353Z,1002.63
2019-03-03T06:25:45.390Z,1002.68
2019-03-03T06:26:45.329Z,1002.68
2019-03-03T06:27:45.321Z,1002.70
2019-03-03T06:28:45.311Z,1002.72
2019-03-03T06:29:45.306Z,1002.67
2019-03-03T06:30:45.287Z,1002.65
2019-03-03T06:31:45.326Z,1002.71
2019-03-03T06:32:45.272Z,1002.64
2019-03-03T06:33:45.310Z,1002.64
2019-03-03T06:34:45.254Z,1002.62
2019-03-03T06:35:45.229Z,1002.61
2019-03-03T06:36:45.268Z,1002.57
2019-03-03T06:37:45.206Z,1002.56
2019-03-03T06:38:45.230Z,1002.55
2019-03-03T06:39:45.220Z,1002.59
2019-03-03T06:40:45.177Z,1002.64
2019-03-03T06:41:45.169Z,1002.58
2019-03-03T06:42:45.239Z,1002.54
2019-03-03T06:43:45.142Z,1002.50
2019-03-03T06:44:45.168Z,1002.57
2019-03-03T06:45:45.118Z,1002.51
2019-03-03T06:46:45.107Z,1002.49
2019-03-03T06:47:45.089Z,1002.42
2019-03-03T06:48:45.134Z,1002.47
2019-03-03T06:49:45.073Z,1002.43
2019-03-03T06:50:45.052Z,1002.39
2019-03-03T06:51:45.092Z,1002.39
2019-03-03T06:52:45.033Z,1002.41
2019-03-03T06:53:45.035Z,1002.38
2019-03-03T06:54:45.012Z,1002.38
2019-03-03T06:55:45.002Z,1002.37
2019-03-03T06:56:45.055Z,1002.40
2019-03-03T06:57:45.016Z,1002.39
2019-03-03T06:58:44.978Z,1002.37
2019-03-03T06:59:44.959Z,1002.30
2019-03-03T07:00:44.939Z,1002.23
2019-03-03T07:01:44.956Z,1002.26
2019-03-03T07:02:44.971Z,1002.24
2019-03-03T07:03:44.910Z,1002.28
2019-03-03T07:04:44.895Z,1002.34
2019-03-03T07:05:44.890Z,1002.40
2019-03-03T07:06:44.879Z,1002.39
2019-03-03T07:07:44.906Z,1002.39
2019-03-03T07:08:44.856Z,1002.32
2019-03-03T07:09:44.840Z,1002.34
2019-03-03T07:10:44.829Z,1002.33
2019-03-03T07:11:44.829Z,1002.20
2019-03-03T07:12:44.827Z,1002.31
2019-03-03T07:13:44.855Z,1002.24
2019-03-03T07:14:44.780Z,1002.24
2019-03-03T07:15:44.768Z,1002.21
2019-03-03T07:16:44.766Z,1002.29
2019-03-03T07:17:44.767Z,1002.14
2019-03-03T07:18:44.742Z,1002.26
2019-03-03T07:19:44.771Z,1002.19
2019-03-03T07:20:44.718Z,1002.21
2019-03-03T07:21:44.700Z,1002.11
2019-03-03T07:22:44.705Z,1002.19
2019-03-03T07:23:44.682Z,1002.20
2019-03-03T07:24:44.669Z,1002.18
2019-03-03T07:25:44.720Z,1002.13
2019-03-03T07:26:44.650Z,1002.26
2019-03-03T07:27:44.649Z,1002.27
2019-03-03T07:28:44.681Z,1002.39
2019-03-03T07:29:44.612Z,1002.42
2019-03-03T07:30:44.610Z,1002.38
2019-03-03T07:31:44.591Z,1002.44
2019-03-03T07:32:44.584Z,1002.45
2019-03-03T07:33:44.575Z,1002.47
2019-03-03T07:34:44.617Z,1002.52
2019-03-03T07:35:44.550Z,1002.48
2019-03-03T07:36:44.531Z,1002.39
2019-03-03T07:37:44.539Z,1002.42
2019-03-03T07:38:44.514Z,1002.45
2019-03-03T07:39:44.498Z,1002.38
2019-03-03T07:40:44.550Z,1002.40
2019-03-03T07:41:44.547Z,1002.47
2019-03-03T07:42:44.472Z,1002.43
2019-03-03T07:43:44.464Z,1002.43
2019-03-03T07:44:44.449Z,1002.43
2019-03-03T07:45:44.430Z,1002.49
2019-03-03T07:46:44.419Z,1002.40
2019-03-03T07:47:44.476Z,1002.42
2019-03-03T07:48:44.462Z,1002.27
2019-03-03T07:49:44.443Z,1002.44
2019-03-03T07:50:44.370Z,1002.55
2019-03-03T07:51:44.386Z,1002.51
2019-03-03T07:52:44.352Z,1002.51
2019-03-03T07:53:44.404Z,1002.43
2019-03-03T07:54:44.335Z,1002.41
2019-03-03T07:55:44.342Z,1002.50
2019-03-03T07:56:44.306Z,1002.42
2019-03-03T07:57:44.379Z,1002.51
2019-03-03T07:58:44.281Z,1002.56
2019-03-03T07:59:44.278Z,1002.54
2019-03-03T08:00:44.276Z,1002.56
2019-03-03T08:01:44.267Z,1002.54
2019-03-03T08:02:44.239Z,1002.38
2019-03-03T08:03:44.265Z,1002.55
2019-03-03T08:04:44.210Z,1002.60
2019-03-03T08:05:44.248Z,1002.50
2019-03-03T08:06:44.190Z,1002.45
2019-03-03T08:07:44.177Z,1002.27
2019-03-03T08:08:44.241Z,1002.48
2019-03-03T08:09:44.154Z,1002.43
2019-03-03T08:10:44.151Z,1002.43
2019-03-03T08:11:44.191Z,1002.51
2019-03-03T08:12:44.122Z,1002.48
2019-03-03T08:13:44.123Z,1002.45
2019-03-03T08:14:44.099Z,1002.37
2019-03-03T08:15:44.098Z,1002.50
2019-03-03T08:16:44.074Z,1002.47
2019-03-03T08:17:44.136Z,1002.43
2019-03-03T08:18:44.056Z,1002.44
2019-03-03T08:19:44.048Z,1002.24
2019-03-03T08:20:44.043Z,1002.28
2019-03-03T08:21:44.091Z,1002.41
2019-03-03T08:22:44.007Z,1002.43
2019-03-03T08:23:44.084Z,1002.40
2019-03-03T08:24:43.996Z,1002.27
2019-03-03T08:25:44.044Z,1002.35
2019-03-03T08:26:43.969Z,1002.43
2019-03-03T08:27:43.956Z,1002.44
2019-03-03T08:28:43.951Z,1002.48
2019-03-03T08:29:43.935Z,1002.38
2019-03-03T08:30:43.920Z,1002.52
2019-03-03T08:31:43.983Z,1002.43
2019-03-03T08:32:43.895Z,1002.54
2019-03-03T08:33:43.884Z,1002.32
2019-03-03T08:34:43.877Z,1002.44
2019-03-03T08:35:43.929Z,1002.43
2019-03-03T08:36:43.868Z,1002.40
2019-03-03T08:37:43.842Z,1002.42
2019-03-03T08:38:43.831Z,1002.44
2019-03-03T08:39:43.820Z,1002.39
2019-03-03T08:40:43.884Z,1002.42
2019-03-03T08:41:43.791Z,1002.47
2019-03-03T08:42:43.862Z,1002.43
2019-03-03T08:43:43.769Z,1002.32
2019-03-03T08:44:43.843Z,1002.36
2019-03-03T08:45:43.752Z,1002.43
2019-03-03T08:46:43.734Z,1002.31
2019-03-03T08:47:52.857Z,1002.40
2019-03-03T08:48:44.716Z,1002.35
2019-03-03T08:49:43.708Z,1002.37
2019-03-03T08:50:43.767Z,1002.39
2019-03-03T08:51:43.675Z,1002.39
2019-03-03T08:52:43.782Z,1002.25
2019-03-03T08:53:43.662Z,1002.31
2019-03-03T08:54:43.669Z,1002.38
2019-03-03T08:55:43.634Z,1002.34
2019-03-03T08:56:43.632Z,1002.14
2019-03-03T08:57:43.615Z,1002.21
2019-03-03T08:58:43.671Z,1002.25
2019-03-03T08:59:43.660Z,1002.33
2019-03-03T09:00:43.577Z,1002.35
2019-03-03T09:01:43.562Z,1002.37
2019-03-03T09:02:43.554Z,1002.27
2019-03-03T09:03:43.643Z,1002.28
2019-03-03T09:04:43.543Z,1002.44
2019-03-03T09:05:43.532Z,1002.29
2019-03-03T09:06:43.512Z,1002.29
2019-03-03T09:07:43.494Z,1002.27
2019-03-03T09:08:43.489Z,1002.32
2019-03-03T09:09:43.551Z,1002.30
2019-03-03T09:10:43.542Z,1002.31
2019-03-03T09:11:44.127Z,1002.27
2019-03-03T09:12:43.449Z,1002.07
2019-03-03T09:13:43.427Z,1002.24
2019-03-03T09:14:43.525Z,1002.24
2019-03-03T09:15:43.406Z,1002.26
2019-03-03T09:16:43.401Z,1002.23
2019-03-03T09:17:43.390Z,1002.24
2019-03-03T09:18:43.375Z,1002.29
2019-03-03T09:19:43.382Z,1002.26
2019-03-03T09:20:43.432Z,1002.29
2019-03-03T09:21:43.347Z,1002.32
2019-03-03T09:22:43.398Z,1002.33
2019-03-03T09:23:43.323Z,1002.30
2019-03-03T09:24:43.309Z,1002.33
2019-03-03T09:25:43.300Z,1002.31
2019-03-03T09:26:43.372Z,1002.31
2019-03-03T09:27:43.273Z,1002.30
2019-03-03T09:28:43.267Z,1002.29
2019-03-03T09:29:43.249Z,1002.34
2019-03-03T09:30:43.245Z,1002.44
2019-03-03T09:31:43.313Z,1002.31
2019-03-03T09:32:43.226Z,1002.42
2019-03-03T09:33:44.614Z,1002.46
2019-03-03T09:34:43.192Z,1002.51
2019-03-03T09:35:43.257Z,1002.45
2019-03-03T09:36:43.174Z,1002.43
2019-03-03T09:37:43.168Z,1002.41
2019-03-03T09:38:43.154Z,1002.49
2019-03-03T09:39:43.136Z,1002.41
2019-03-03T09:40:43.129Z,1002.63
2019-03-03T09:41:43.195Z,1002.43
2019-03-03T09:42:43.107Z,1002.47
2019-03-03T09:43:43.106Z,1002.48
2019-03-03T09:44:43.089Z,1002.45
2019-03-03T09:45:43.138Z,1002.34
2019-03-03T09:46:43.135Z,1002.40
2019-03-03T09:47:43.050Z,1002.44
2019-03-03T09:48:43.039Z,1002.45
2019-03-03T09:49:43.035Z,1002.30
2019-03-03T09:50:43.017Z,1002.35
2019-03-03T09:51:43.000Z,1002.25
2019-03-03T09:52:43.077Z,1002.28
2019-03-03T09:53:43.001Z,1002.37
2019-03-03T09:54:42.970Z,1002.33
2019-03-03T09:55:42.958Z,1002.36
2019-03-03T09:56:43.032Z,1002.29
2019-03-03T09:57:42.978Z,1002.28
2019-03-03T09:58:43.029Z,1002.19
2019-03-03T09:59:42.915Z,1002.22
2019-03-03T10:00:42.903Z,1002.25
2019-03-03T10:01:42.886Z,1002.25
2019-03-03T10:02:42.884Z,1002.31
2019-03-03T10:03:43.118Z,1002.19
2019-03-03T10:04:42.854Z,1002.14
2019-03-03T10:05:42.843Z,1002.08
2019-03-03T10:06:42.830Z,1002.17
2019-03-03T10:07:42.897Z,1002.05
2019-03-03T10:08:42.810Z,1002.09
2019-03-03T10:09:42.795Z,1002.24
2019-03-03T10:10:42.870Z,1002.04
2019-03-03T10:11:42.781Z,1002.05
2019-03-03T10:12:42.767Z,1002.07
2019-03-03T10:13:42.755Z,1002.10
2019-03-03T10:14:42.749Z,1002.11
2019-03-03T10:15:42.824Z,1002.10
2019-03-03T10:16:42.722Z,1002.08
2019-03-03T10:17:42.721Z,1002.07
2019-03-03T10:18:42.697Z,1001.89
2019-03-03T10:19:42.685Z,1002.03
2019-03-03T10:20:42.675Z,1002.07
2019-03-03T10:21:42.757Z,1001.99
2019-03-03T10:22:42.656Z,1002.16
2019-03-03T10:23:42.640Z,1001.95
2019-03-03T10:24:42.627Z,1001.97
2019-03-03T10:25:42.616Z,1001.90
2019-03-03T10:26:42.604Z,1001.86
2019-03-03T10:27:42.668Z,1001.81
2019-03-03T10:28:42.581Z,1001.64
2019-03-03T10:29:42.572Z,1001.90
2019-03-03T10:30:42.570Z,1001.82
2019-03-03T10:31:42.547Z,1001.86
2019-03-03T10:32:42.538Z,1001.79
2019-03-03T10:33:42.600Z,1001.74
2019-03-03T10:34:42.523Z,1001.74
2019-03-03T10:35:42.506Z,1001.69
2019-03-03T10:36:42.579Z,1001.75
2019-03-03T10:37:42.484Z,1001.47
2019-03-03T10:38:42.560Z,1001.79
2019-03-03T10:39:42.540Z,1001.64
2019-03-03T10:40:42.448Z,1001.59
2019-03-03T10:41:42.440Z,1001.68
2019-03-03T10:42:42.426Z,1001.64
2019-03-03T10:43:42.417Z,1001.57
2019-03-03T10:44:42.404Z,1001.64
2019-03-03T10:45:42.470Z,1001.83
2019-03-03T10:46:42.389Z,1001.47
2019-03-03T10:47:42.382Z,1001.63
2019-03-03T10:48:42.356Z,1001.68
2019-03-03T10:49:42.357Z,1001.72
2019-03-03T10:50:42.354Z,1001.64
2019-03-03T10:51:42.414Z,1001.70
2019-03-03T10:52:42.318Z,1001.67
2019-03-03T10:53:42.304Z,1001.61
2019-03-03T10:54:42.361Z,1001.63
2019-03-03T10:55:42.285Z,1001.62
2019-03-03T10:56:42.272Z,1001.72
2019-03-03T10:57:42.262Z,1001.84
2019-03-03T10:58:42.249Z,1001.75
2019-03-03T10:59:42.240Z,1001.63
2019-03-03T11:00:42.297Z,1001.58
2019-03-03T11:01:42.211Z,1001.66
2019-03-03T11:02:42.276Z,1001.67
2019-03-03T11:03:42.193Z,1001.79
2019-03-03T11:04:42.209Z,1001.73
2019-03-03T11:05:42.173Z,1001.64
2019-03-03T11:06:42.156Z,1001.58
2019-03-03T11:07:42.147Z,1001.78
2019-03-03T11:08:42.214Z,1001.72
2019-03-03T11:09:42.137Z,1001.59
2019-03-03T11:10:42.625Z,1001.72
2019-03-03T11:11:42.103Z,1001.72
2019-03-03T11:12:42.095Z,1001.78
2019-03-03T11:13:42.078Z,1001.67
2019-03-03T11:14:42.082Z,1001.77
2019-03-03T11:15:42.058Z,1001.83
2019-03-03T11:16:42.127Z,1001.83
2019-03-03T11:17:42.038Z,1001.80
2019-03-03T11:18:42.018Z,1001.81
2019-03-03T11:19:42.021Z,1001.81
2019-03-03T11:20:41.996Z,1001.87
2019-03-03T11:21:42.003Z,1001.94
2019-03-03T11:22:42.052Z,1001.85
2019-03-03T11:23:41.968Z,1001.62
2019-03-03T11:24:41.956Z,1001.62
2019-03-03T11:25:41.939Z,1001.88
2019-03-03T11:26:41.946Z,1001.81
2019-03-03T11:27:42.100Z,1001.73
2019-03-03T11:28:41.931Z,1001.89
2019-03-03T11:29:41.906Z,1001.85
2019-03-03T11:30:41.884Z,1001.89
2019-03-03T11:31:41.952Z,1001.95
2019-03-03T11:32:41.863Z,1001.87
2019-03-03T11:33:41.854Z,1001.46
2019-03-03T11:34:41.844Z,1001.82
2019-03-03T11:35:41.830Z,1001.92
2019-03-03T11:36:41.821Z,1001.83
2019-03-03T11:37:41.882Z,1001.81
2019-03-03T11:38:41.823Z,1001.83
2019-03-03T11:39:41.870Z,1001.67
2019-03-03T11:40:41.775Z,1001.65
2019-03-03T11:41:41.762Z,1001.54
2019-03-03T11:42:41.761Z,1001.59
2019-03-03T11:43:41.751Z,1001.60
2019-03-03T11:44:41.726Z,1001.56
2019-03-03T11:45:41.797Z,1001.52
2019-03-03T11:46:41.709Z,1001.49
2019-03-03T11:47:41.722Z,1001.48
2019-03-03T11:48:41.765Z,1001.38
2019-03-03T11:49:41.673Z,1001.50
2019-03-03T11:50:41.660Z,1001.48
2019-03-03T11:51:41.647Z,1001.43
2019-03-03T11:52:41.658Z,1001.47
2019-03-03T11:53:41.637Z,1001.25
2019-03-03T11:54:41.694Z,1001.39
2019-03-03T11:55:42.103Z,1001.33
2019-03-03T11:56:41.590Z,1001.16
2019-03-03T11:57:41.670Z,1001.14
2019-03-03T11:58:41.569Z,1001.05
2019-03-03T11:59:41.563Z,1000.97
2019-03-03T12:00:41.545Z,1000.98
2019-03-03T12:01:41.555Z,1001.00
2019-03-03T12:02:41.552Z,1000.93
2019-03-03T12:03:41.592Z,1000.91
2019-03-03T12:04:41.501Z,1000.83
2019-03-03T12:05:41.567Z,1000.88